Time;durP1;ratioP1;P1;durP2;ratioP2;P2;SDS_P1;SDS_P2;PMS_P1;PMS_P2;Temp;Humidity;BMP_temperature;BMP_pressure;BME280_temperature;BME280_humidity;BME280_pressure;Samples;Min_cycle;Max_cycle;Signal;HPM_P1;HPM_P2
2021/06/28 00:00:15;;;;;;;11.80;4.57;;;;;;;16.77;60.23;100786.00;4988876;28;20077;-66
2021/06/28 00:02:42;;;;;;;15.87;4.90;;;;;;;16.80;60.49;100791.84;4987834;28;20130;-68
2021/06/28 00:05:11;;;;;;;14.20;5.53;;;;;;;16.79;60.31;100789.34;4987445;28;20057;-68
2021/06/28 00:07:39;;;;;;;10.23;5.53;;;;;;;16.79;60.43;100790.19;4987413;28;20050;-65
2021/06/28 00:10:08;;;;;;;8.80;4.00;;;;;;;16.67;60.36;100783.38;4982390;28;20125;-64
2021/06/28 00:12:35;;;;;;;11.43;5.07;;;;;;;16.71;60.56;100795.69;4986639;28;20105;-65
2021/06/28 00:15:05;;;;;;;9.23;5.50;;;;;;;16.68;60.48;100790.69;4993115;28;20125;-64
2021/06/28 00:17:31;;;;;;;17.65;4.80;;;;;;;16.67;60.25;100797.47;4984003;28;20494;-65
2021/06/28 00:19:58;;;;;;;12.07;4.03;;;;;;;16.55;60.73;100792.41;4988375;28;20081;-66
2021/06/28 00:22:25;;;;;;;11.27;4.30;;;;;;;16.50;60.53;100795.31;4987547;28;20562;-66
2021/06/28 00:24:52;;;;;;;9.53;4.67;;;;;;;16.61;60.37;100810.84;4981431;28;20133;-64
2021/06/28 00:27:22;;;;;;;9.13;5.57;;;;;;;16.61;60.77;100816.47;5011908;28;20133;-64
2021/06/28 00:29:51;;;;;;;12.00;4.53;;;;;;;16.57;60.88;100813.47;4994397;28;20078;-64
2021/06/28 00:32:18;;;;;;;11.03;4.53;;;;;;;16.54;60.77;100811.25;4988015;28;20158;-65
2021/06/28 00:34:45;;;;;;;14.10;4.73;;;;;;;16.51;60.98;100816.69;4975958;28;20134;-66
2021/06/28 00:37:12;;;;;;;9.93;4.93;;;;;;;16.50;60.85;100810.22;4981732;28;20057;-65
2021/06/28 00:39:39;;;;;;;10.60;4.30;;;;;;;16.52;61.06;100821.22;4976198;28;20141;-65
2021/06/28 00:42:06;;;;;;;13.93;4.40;;;;;;;16.49;61.05;100807.75;4990589;28;20081;-66
2021/06/28 00:44:33;;;;;;;11.47;3.63;;;;;;;16.50;61.20;100813.06;4992925;28;20133;-65
2021/06/28 00:47:00;;;;;;;7.23;4.50;;;;;;;16.45;61.34;100812.34;4989087;28;20138;-66
2021/06/28 00:49:27;;;;;;;13.97;4.37;;;;;;;16.46;61.05;100799.91;4992802;28;20042;-69
2021/06/28 00:51:56;;;;;;;11.40;3.87;;;;;;;16.47;61.01;100801.56;4988054;28;20483;-73
2021/06/28 00:54:24;;;;;;;7.50;3.50;;;;;;;16.42;61.21;100801.69;4991263;28;20558;-73
2021/06/28 00:56:52;;;;;;;6.87;3.60;;;;;;;16.28;61.27;100779.97;4990709;28;20049;-72
2021/06/28 00:59:20;;;;;;;6.03;3.30;;;;;;;16.33;61.05;100796.78;4986119;28;20137;-71
2021/06/28 01:01:47;;;;;;;7.33;4.03;;;;;;;16.26;61.34;100793.53;4997003;28;20062;-68
2021/06/28 01:04:14;;;;;;;9.52;4.18;;;;;;;16.27;61.46;100808.47;5000401;28;20057;-69
2021/06/28 01:06:41;;;;;;;13.37;3.97;;;;;;;16.31;61.41;100803.91;4992092;28;20121;-68
2021/06/28 01:09:08;;;;;;;9.27;3.83;;;;;;;16.28;61.54;100802.53;4979261;28;20146;-70
2021/06/28 01:11:35;;;;;;;10.53;3.53;;;;;;;16.13;61.17;100777.47;4981989;28;20126;-70
2021/06/28 01:14:02;;;;;;;8.47;3.57;;;;;;;15.88;61.60;100745.84;4987016;28;20073;-69
2021/06/28 01:16:29;;;;;;;7.63;3.53;;;;;;;16.19;61.46;100793.13;4989315;28;20077;-70
2021/06/28 01:18:56;;;;;;;5.80;3.30;;;;;;;16.20;61.69;100786.31;4989897;28;20046;-69
2021/06/28 01:21:27;;;;;;;11.27;4.80;;;;;;;16.11;61.66;100782.59;4995011;28;20077;-67
2021/06/28 01:23:54;;;;;;;10.40;4.10;;;;;;;16.16;61.62;100788.09;4997919;28;20046;-67
2021/06/28 01:26:21;;;;;;;8.90;4.10;;;;;;;16.08;61.72;100769.13;4990588;28;20073;-67
2021/06/28 01:28:48;;;;;;;9.60;3.57;;;;;;;16.05;61.70;100769.75;4990913;28;20081;-66
2021/06/28 01:31:15;;;;;;;9.43;4.00;;;;;;;16.14;61.85;100776.34;4990515;28;20134;-67
2021/06/28 01:33:42;;;;;;;11.93;3.33;;;;;;;16.13;61.80;100783.09;4994334;28;20137;-74
2021/06/28 01:36:09;;;;;;;8.33;3.70;;;;;;;16.12;61.79;100792.72;4993735;28;20050;-75
2021/06/28 01:38:36;;;;;;;11.00;3.47;;;;;;;16.01;61.81;100775.16;4991818;28;20166;-67
2021/06/28 01:41:03;;;;;;;9.87;3.73;;;;;;;15.99;61.64;100773.81;4982869;28;20074;-69
2021/06/28 01:43:31;;;;;;;14.17;3.33;;;;;;;16.08;61.73;100786.03;4982496;28;20141;-63
2021/06/28 01:45:57;;;;;;;11.63;3.23;;;;;;;16.09;61.75;100799.78;4991500;28;20070;-70
2021/06/28 01:48:24;;;;;;;9.57;3.53;;;;;;;16.00;61.69;100786.72;4991227;28;20078;-70
2021/06/28 01:50:52;;;;;;;8.30;3.77;;;;;;;16.02;61.74;100787.28;4988334;28;20129;-70
2021/06/28 01:53:19;;;;;;;13.10;3.83;;;;;;;16.01;61.86;100785.59;4981645;28;20073;-68
2021/06/28 01:55:46;;;;;;;14.37;3.93;;;;;;;15.96;61.82;100782.88;4975252;28;20133;-68
2021/06/28 01:58:15;;;;;;;16.37;3.60;;;;;;;15.93;61.74;100781.53;4985980;28;20089;-66
2021/06/28 02:00:48;;;;;;;10.45;3.85;;;;;;;15.90;61.91;100770.91;4978210;28;20126;-67
2021/06/28 02:03:18;;;;;;;7.97;3.30;;;;;;;15.93;62.06;100777.84;4984858;28;20042;-67
2021/06/28 02:05:53;;;;;;;15.53;3.97;;;;;;;15.87;62.00;100769.53;4974961;28;20466;-67
2021/06/28 02:08:22;;;;;;;14.33;3.33;;;;;;;15.86;62.15;100762.22;4986001;28;20601;-67
2021/06/28 02:10:51;;;;;;;8.27;3.00;;;;;;;15.82;62.15;100768.78;4984362;28;20148;-67
2021/06/28 02:13:24;;;;;;;8.95;3.85;;;;;;;15.86;62.63;100773.50;4995568;28;20082;-68
2021/06/28 02:15:53;;;;;;;12.70;3.73;;;;;;;15.97;62.50;100778.94;4981842;28;20133;-66
2021/06/28 02:18:24;;;;;;;10.03;3.87;;;;;;;15.90;62.30;100772.84;4991755;28;20046;-67
2021/06/28 02:20:53;;;;;;;11.13;3.20;;;;;;;15.88;62.29;100771.19;4992856;28;20112;-67
2021/06/28 02:23:27;;;;;;;5.30;2.87;;;;;;;15.81;62.11;100769.94;4988386;28;20100;-67
2021/06/28 02:25:57;;;;;;;12.80;3.33;;;;;;;15.81;62.25;100765.13;4992192;28;20078;-68
2021/06/28 02:28:26;;;;;;;12.57;3.70;;;;;;;15.85;62.49;100774.63;4990097;28;20129;-68
2021/06/28 02:30:54;;;;;;;12.27;4.17;;;;;;;15.86;62.58;100773.50;4998886;28;20075;-66
2021/06/28 02:33:22;;;;;;;7.87;3.60;;;;;;;15.78;62.35;100764.91;4988335;28;20402;-65
2021/06/28 02:35:49;;;;;;;9.10;3.43;;;;;;;15.78;62.57;100767.72;5003674;28;20489;-66
2021/06/28 02:38:16;;;;;;;9.57;3.53;;;;;;;15.74;62.52;100770.34;4993668;28;20060;-68
2021/06/28 02:40:43;;;;;;;13.23;3.20;;;;;;;15.77;62.57;100783.78;4989440;28;20093;-67
2021/06/28 02:43:11;;;;;;;10.13;3.37;;;;;;;15.69;62.59;100770.44;4992918;28;20134;-67
2021/06/28 02:45:37;;;;;;;10.13;4.07;;;;;;;15.74;62.64;100787.22;4982926;28;20034;-67
2021/06/28 02:48:06;;;;;;;9.77;3.20;;;;;;;15.74;62.58;100787.22;4997208;28;20074;-64
2021/06/28 02:50:33;;;;;;;10.47;4.20;;;;;;;15.65;62.66;100767.34;4997076;28;20120;-64
2021/06/28 02:53:00;;;;;;;12.00;3.43;;;;;;;15.76;62.72;100784.09;4996028;28;20070;-65
2021/06/28 02:55:27;;;;;;;13.80;3.73;;;;;;;15.80;63.12;100779.53;4995361;28;20142;-66
2021/06/28 02:57:54;;;;;;;12.77;3.63;;;;;;;15.74;63.27;100770.34;4994845;28;20078;-66
2021/06/28 03:00:21;;;;;;;10.33;3.43;;;;;;;15.81;63.01;100779.22;4996380;28;21413;-65
2021/06/28 03:02:48;;;;;;;17.23;3.40;;;;;;;15.80;62.88;100777.56;4983969;28;20079;-65
2021/06/28 03:05:15;;;;;;;9.07;3.67;;;;;;;15.79;62.83;100773.03;4980983;28;20053;-66
2021/06/28 03:07:42;;;;;;;9.37;3.00;;;;;;;15.76;62.79;100773.69;4992794;28;20133;-66
2021/06/28 03:10:12;;;;;;;7.17;3.00;;;;;;;15.71;62.97;100762.50;4984968;28;20142;-66
2021/06/28 03:12:40;;;;;;;11.73;3.80;;;;;;;15.70;62.99;100766.47;4979354;28;20435;-66
2021/06/28 03:15:10;;;;;;;7.40;3.30;;;;;;;15.70;63.05;100772.09;4993932;28;20051;-68
2021/06/28 03:17:38;;;;;;;10.60;3.65;;;;;;;15.67;63.22;100764.28;4989862;28;20495;-68
2021/06/28 03:20:07;;;;;;;12.27;3.67;;;;;;;15.65;63.15;100767.34;4997207;28;20460;-67
2021/06/28 03:22:35;;;;;;;;;;;;;;;15.65;62.55;100780.59;4992883;28;20046;-67
2021/06/28 03:25:03;;;;;;;6.03;3.20;;;;;;;15.61;62.79;100771.09;4984690;28;19922;-67
2021/06/28 03:27:29;;;;;;;10.80;3.77;;;;;;;15.48;62.92;100755.84;4996135;28;20146;-69
2021/06/28 03:29:56;;;;;;;9.23;3.80;;;;;;;15.53;63.03;100774.63;4995241;28;20069;-70
2021/06/28 03:32:23;;;;;;;10.23;3.83;;;;;;;15.55;63.13;100770.34;4993599;28;20078;-70
2021/06/28 03:34:51;;;;;;;6.70;3.30;;;;;;;15.58;63.25;100780.16;5002692;28;20129;-68
2021/06/28 03:37:18;;;;;;;8.67;3.43;;;;;;;15.41;63.13;100758.22;5011488;28;20047;-69
2021/06/28 03:39:45;;;;;;;9.03;3.70;;;;;;;15.48;63.21;100767.09;4997503;28;20133;-69
2021/06/28 03:42:11;;;;;;;10.37;3.70;;;;;;;15.55;63.25;100778.78;4990766;28;20129;-68
2021/06/28 03:44:40;;;;;;;9.60;3.87;;;;;;;15.56;63.31;100779.66;4986312;28;20578;-68
2021/06/28 03:47:07;;;;;;;13.50;4.07;;;;;;;15.57;63.42;100775.69;4990555;28;20049;-67
2021/06/28 03:49:36;;;;;;;10.40;3.10;;;;;;;15.47;63.48;100756.16;4996088;28;20121;-67
2021/06/28 03:52:03;;;;;;;15.50;3.87;;;;;;;15.57;63.58;100775.69;4981600;28;20121;-68
2021/06/28 03:54:30;;;;;;;7.50;2.63;;;;;;;15.55;63.62;100780.78;4986422;28;20066;-66
2021/06/28 03:56:57;;;;;;;10.20;3.23;;;;;;;15.48;63.54;100766.28;4990275;28;20084;-66
2021/06/28 03:59:24;;;;;;;9.73;3.40;;;;;;;15.59;63.56;100785.50;4988886;28;20129;-70
2021/06/28 04:01:51;;;;;;;10.40;4.17;;;;;;;15.59;63.72;100788.31;4979901;28;20086;-71
2021/06/28 04:04:19;;;;;;;11.63;3.43;;;;;;;15.46;63.60;100760.13;4982984;28;20054;-70
2021/06/28 04:06:46;;;;;;;9.77;3.63;;;;;;;15.46;63.46;100775.03;4989118;28;20559;-71
2021/06/28 04:09:13;;;;;;;12.60;3.17;;;;;;;15.54;63.55;100781.94;4987864;28;20129;-74
2021/06/28 04:11:40;;;;;;;10.03;3.10;;;;;;;15.55;63.66;100794.84;5006459;28;20122;-74
2021/06/28 04:14:07;;;;;;;13.17;3.57;;;;;;;15.47;63.63;100771.06;4997969;28;20128;-73
2021/06/28 04:16:34;;;;;;;14.70;3.33;;;;;;;15.54;63.72;100787.56;4996749;28;20105;-74
2021/06/28 04:19:00;;;;;;;9.43;3.30;;;;;;;15.45;63.98;100767.72;4980896;28;20129;-73
2021/06/28 04:21:27;;;;;;;8.93;2.93;;;;;;;15.59;63.92;100804.38;4991908;28;20073;-73
2021/06/28 04:23:55;;;;;;;6.63;3.00;;;;;;;15.55;63.98;100789.22;4983109;28;20126;-73
2021/06/28 04:26:22;;;;;;;10.67;4.10;;;;;;;15.50;63.92;100773.28;4990077;28;20116;-73
2021/06/28 04:28:48;;;;;;;9.40;3.40;;;;;;;15.57;63.88;100786.94;4981113;28;20078;-67
2021/06/28 04:31:15;;;;;;;6.03;3.00;;;;;;;15.60;64.02;100803.22;4990311;28;20129;-65
2021/06/28 04:33:42;;;;;;;8.43;3.67;;;;;;;15.59;63.89;100798.75;4975324;28;20043;-64
2021/06/28 04:36:09;;;;;;;14.20;3.30;;;;;;;15.60;64.02;100798.44;4987939;28;20121;-72
2021/06/28 04:38:36;;;;;;;12.97;3.23;;;;;;;15.58;63.74;100794.25;4993766;28;20046;-65
2021/06/28 04:41:03;;;;;;;11.20;3.30;;;;;;;15.59;63.82;100795.94;4993939;28;20065;-66
2021/06/28 04:43:30;;;;;;;5.13;2.70;;;;;;;15.55;63.86;100786.41;4993833;28;20042;-63
2021/06/28 04:45:57;;;;;;;11.27;2.70;;;;;;;15.57;64.01;100784.13;4995330;28;20069;-64
2021/06/28 04:48:23;;;;;;;7.40;3.27;;;;;;;15.60;63.99;100798.44;4993559;28;20133;-69
2021/06/28 04:50:50;;;;;;;9.70;3.17;;;;;;;15.62;63.89;100795.28;4988044;28;20146;-70
2021/06/28 04:53:17;;;;;;;9.67;3.20;;;;;;;15.61;63.75;100799.25;4989678;28;20150;-68
2021/06/28 04:55:44;;;;;;;11.17;2.80;;;;;;;15.35;63.75;100751.88;4994412;28;20169;-67
2021/06/28 04:58:11;;;;;;;13.03;3.50;;;;;;;15.60;63.70;100789.16;4992649;28;20499;-64
2021/06/28 05:00:38;;;;;;;15.00;3.30;;;;;;;15.65;63.85;100795.50;4984378;28;20564;-65
2021/06/28 05:03:05;;;;;;;8.00;3.33;;;;;;;15.64;63.75;100796.66;4988182;28;20165;-67
2021/06/28 05:05:31;;;;;;;11.30;3.30;;;;;;;15.55;63.74;100783.59;4985220;28;20129;-62
2021/06/28 05:07:59;;;;;;;11.07;3.40;;;;;;;15.56;63.70;100785.28;4993461;28;20429;-66
2021/06/28 05:10:26;;;;;;;8.30;3.03;;;;;;;15.49;63.49;100774.44;4984397;28;20070;-62
2021/06/28 05:12:53;;;;;;;11.70;3.63;;;;;;;15.66;63.54;100799.22;4993575;28;20138;-65
2021/06/28 05:15:20;;;;;;;11.10;2.80;;;;;;;15.61;63.47;100802.06;4988263;28;20051;-68
2021/06/28 05:17:47;;;;;;;9.90;2.83;;;;;;;15.61;63.40;100807.69;4992485;28;20129;-65
2021/06/28 05:20:14;;;;;;;8.70;3.93;;;;;;;15.51;63.58;100791.81;4993862;28;20046;-71
2021/06/28 05:22:42;;;;;;;13.20;4.77;;;;;;;15.63;63.71;100811.88;4993190;28;20058;-66
2021/06/28 05:25:11;;;;;;;12.13;3.50;;;;;;;15.67;63.33;100806.50;4983638;28;20138;-65
2021/06/28 05:27:38;;;;;;;6.27;3.40;;;;;;;15.61;63.50;100807.69;4993519;28;20125;-65
2021/06/28 05:30:08;;;;;;;15.50;3.63;;;;;;;15.65;63.46;100800.31;4986142;28;20054;-66
2021/06/28 05:32:35;;;;;;;10.50;3.60;;;;;;;15.76;63.53;100818.75;4994552;28;20096;-67
2021/06/28 05:35:04;;;;;;;10.70;4.77;;;;;;;15.79;63.44;100803.19;4993605;28;20046;-68
2021/06/28 05:37:31;;;;;;;8.33;4.37;;;;;;;16.03;63.34;100817.97;4978590;28;20089;-68
2021/06/28 05:40:04;;;;;;;8.47;4.13;;;;;;;16.16;62.96;100827.56;4990608;28;20565;-67
2021/06/28 05:42:32;;;;;;;21.10;4.80;;;;;;;16.19;62.80;100820.47;4997982;28;20487;-71
2021/06/28 05:44:58;;;;;;;10.00;4.10;;;;;;;16.35;62.91;100831.13;4979959;28;20135;-65
2021/06/28 05:47:25;;;;;;;12.77;4.70;;;;;;;16.50;62.41;100834.78;4989938;28;20080;-68
2021/06/28 05:49:52;;;;;;;8.67;3.70;;;;;;;16.46;62.12;100797.91;4989544;28;20047;-69
2021/06/28 05:52:20;;;;;;;14.17;4.00;;;;;;;16.89;62.01;100827.75;4988193;28;20501;-69
2021/06/28 05:54:49;;;;;;;8.43;3.67;;;;;;;17.09;61.46;100838.56;4993456;28;20116;-69
2021/06/28 05:57:22;;;;;;;10.83;3.27;;;;;;;17.13;61.73;100819.88;4996435;28;20046;-69
2021/06/28 05:59:49;;;;;;;12.20;4.03;;;;;;;17.36;61.66;100845.28;4996035;28;20073;-68
2021/06/28 06:02:18;;;;;;;10.10;4.00;;;;;;;17.66;61.18;100841.72;4990315;28;20077;-68
2021/06/28 06:04:45;;;;;;;9.48;3.90;;;;;;;17.89;60.71;100839.75;4985527;28;20054;-67
2021/06/28 06:07:12;;;;;;;10.75;3.67;;;;;;;18.23;60.05;100833.44;4992972;28;20092;-61
2021/06/28 06:09:39;;;;;;;9.82;3.53;;;;;;;18.40;59.53;100843.16;4991430;28;20207;-63
2021/06/28 06:12:07;;;;;;;14.30;3.95;;;;;;;18.70;59.22;100833.78;4992209;28;20081;-65
2021/06/28 06:14:34;;;;;;;8.77;4.03;;;;;;;19.20;58.53;100851.56;4978858;28;20047;-64
2021/06/28 06:17:04;;;;;;;11.90;3.58;;;;;;;19.71;57.20;100859.25;4985524;28;20050;-67
2021/06/28 06:19:30;;;;;;;7.75;3.80;;;;;;;19.94;56.53;100851.38;4989152;28;20078;-69
2021/06/28 06:21:58;;;;;;;11.73;4.03;;;;;;;20.01;56.16;100863.03;4990708;28;20085;-66
2021/06/28 06:24:28;;;;;;;11.25;3.40;;;;;;;20.01;56.02;100856.53;4991181;28;20042;-67
2021/06/28 06:26:58;;;;;;;18.00;3.78;;;;;;;20.06;55.83;100853.50;4989847;28;20101;-68
2021/06/28 06:29:26;;;;;;;7.53;3.42;;;;;;;20.00;55.43;100855.72;4987468;28;20084;-68
2021/06/28 06:31:53;;;;;;;7.35;2.53;;;;;;;19.74;56.08;100829.41;4987634;28;20112;-68
2021/06/28 06:34:22;;;;;;;13.43;3.03;;;;;;;20.06;55.20;100854.34;4985142;28;20058;-68
2021/06/28 06:36:49;;;;;;;3.90;2.70;;;;;;;20.11;55.22;100864.69;4987390;28;20050;-68
2021/06/28 06:39:16;;;;;;;11.52;3.25;;;;;;;20.16;55.07;100858.81;4990654;28;20054;-69
2021/06/28 06:41:43;;;;;;;9.60;2.90;;;;;;;20.15;54.89;100853.50;4984730;28;20581;-68
2021/06/28 06:44:11;;;;;;;8.27;3.28;;;;;;;20.45;54.22;100851.56;4985047;28;20485;-67
2021/06/28 06:46:38;;;;;;;6.95;3.22;;;;;;;20.85;53.60;100869.06;4986959;28;20150;-67
2021/06/28 06:49:06;;;;;;;11.38;4.28;;;;;;;21.53;52.65;100849.91;4988044;28;20070;-68
2021/06/28 06:51:33;;;;;;;8.98;4.82;;;;;;;22.12;51.02;100860.22;4975944;28;20042;-67
2021/06/28 06:54:00;;;;;;;15.68;5.97;;;;;;;22.24;50.31;100853.75;4987614;28;20051;-67
2021/06/28 06:56:27;;;;;;;18.27;6.18;;;;;;;22.23;50.23;100867.13;4967308;28;20049;-67
2021/06/28 06:58:54;;;;;;;17.15;6.78;;;;;;;22.27;50.05;100855.88;4987521;28;20074;-67
2021/06/28 07:01:21;;;;;;;20.52;7.10;;;;;;;22.19;50.10;100857.66;4990687;28;20137;-66
2021/06/28 07:03:48;;;;;;;17.40;5.75;;;;;;;22.31;49.60;100856.84;4988775;28;20125;-69
2021/06/28 07:06:15;;;;;;;18.52;5.78;;;;;;;22.72;49.07;100854.97;4979845;28;20134;-67
2021/06/28 07:08:42;;;;;;;19.92;5.68;;;;;;;23.00;48.71;100855.09;4984433;28;20065;-67
2021/06/28 07:11:12;;;;;;;15.00;5.00;;;;;;;23.27;47.99;100847.81;4987949;28;20513;-66
2021/06/28 07:13:40;;;;;;;15.32;5.45;;;;;;;23.84;46.98;100863.81;4991292;28;20089;-67
2021/06/28 07:16:07;;;;;;;15.75;6.03;;;;;;;24.33;46.28;100877.81;4991832;28;20481;-67
2021/06/28 07:18:34;;;;;;;13.43;6.65;;;;;;;24.52;45.47;100856.34;4986834;28;20413;-67
2021/06/28 07:21:03;;;;;;;13.55;4.20;;;;;;;24.74;44.91;100855.66;4998921;28;20081;-67
2021/06/28 07:23:31;;;;;;;6.13;3.10;;;;;;;24.85;44.79;100840.81;4990581;28;20042;-63
2021/06/28 07:25:58;;;;;;;10.20;3.17;;;;;;;25.12;43.73;100839.88;4984399;28;20142;-68
2021/06/28 07:28:25;;;;;;;7.68;3.67;;;;;;;25.51;43.58;100880.78;4981291;28;20065;-72
2021/06/28 07:30:56;;;;;;;9.93;3.35;;;;;;;25.62;42.77;100886.75;5008107;28;20125;-67
2021/06/28 07:33:28;;;;;;;6.50;3.45;;;;;;;25.70;42.88;100859.13;4995019;28;20486;-70
2021/06/28 07:35:58;;;;;;;9.77;3.10;;;;;;;25.99;42.26;100874.88;4996642;28;20054;-66
2021/06/28 07:38:26;;;;;;;9.25;3.20;;;;;;;26.19;41.94;100875.69;4994900;28;20446;-66
2021/06/28 07:40:52;;;;;;;11.90;4.05;;;;;;;26.47;41.40;100886.88;4994441;28;20083;-66
2021/06/28 07:43:20;;;;;;;14.43;2.83;;;;;;;26.51;41.09;100875.50;4990245;28;20058;-67
2021/06/28 07:45:49;;;;;;;9.50;2.65;;;;;;;26.70;41.05;100893.44;4990614;28;20145;-66
2021/06/28 07:48:17;;;;;;;8.68;2.55;;;;;;;26.80;40.54;100868.19;4978909;28;20402;-66
2021/06/28 07:50:44;;;;;;;7.85;3.15;;;;;;;26.88;40.36;100882.28;4994281;28;20130;-68
2021/06/28 07:53:12;;;;;;;13.90;3.30;;;;;;;26.97;40.15;100884.84;4989903;28;20498;-65
2021/06/28 07:55:39;;;;;;;9.98;3.13;;;;;;;26.63;40.33;100858.09;4988738;28;20084;-65
2021/06/28 07:58:06;;;;;;;13.90;2.95;;;;;;;26.47;40.78;100886.88;4990054;28;20105;-65
2021/06/28 08:00:33;;;;;;;8.52;3.10;;;;;;;26.53;40.97;100885.38;4988676;28;20129;-66
2021/06/28 08:03:01;;;;;;;9.27;4.07;;;;;;;26.66;40.47;100861.00;4994151;28;20438;-65
2021/06/28 08:05:28;;;;;;;13.05;3.42;;;;;;;26.87;39.91;100874.03;4994478;28;20162;-66
2021/06/28 08:07:55;;;;;;;10.05;3.80;;;;;;;26.88;40.05;100884.31;4996996;28;20129;-66
2021/06/28 08:10:22;;;;;;;7.03;2.97;;;;;;;27.20;39.78;100884.03;4994511;28;20042;-65
2021/06/28 08:12:49;;;;;;;13.82;4.35;;;;;;;27.55;39.18;100893.13;4994587;28;20566;-66
2021/06/28 08:15:18;;;;;;;10.38;3.60;;;;;;;27.92;38.56;100889.56;5001776;28;20053;-65
2021/06/28 08:17:49;;;;;;;;;;;;;;;27.91;40.19;100885.03;5002128;28;20378;-69
2021/06/28 08:20:19;;;;;;;6.45;2.67;;;;;;;28.10;38.81;100882.00;4995257;28;19972;-65
2021/06/28 08:22:47;;;;;;;7.60;2.65;;;;;;;28.13;38.39;100877.50;4994744;28;20125;-66
2021/06/28 08:25:15;;;;;;;11.90;2.85;;;;;;;28.36;37.83;100894.59;4993882;28;20081;-66
2021/06/28 08:27:43;;;;;;;4.25;2.15;;;;;;;28.40;37.64;100889.72;4987307;28;20070;-63
2021/06/28 08:30:12;;;;;;;7.63;2.40;;;;;;;28.44;37.51;100896.31;4992243;28;20081;-68
2021/06/28 08:32:39;;;;;;;9.43;2.28;;;;;;;28.38;37.52;100892.16;4991633;28;20046;-63
2021/06/28 08:35:07;;;;;;;11.20;3.03;;;;;;;28.29;37.43;100883.03;4993681;28;20051;-63
2021/06/28 08:37:34;;;;;;;6.93;2.20;;;;;;;28.46;37.20;100916.88;4995587;28;20050;-64
2021/06/28 08:40:01;;;;;;;4.95;2.17;;;;;;;28.44;37.00;100907.00;4987333;28;20105;-64
2021/06/28 08:42:30;;;;;;;7.10;2.13;;;;;;;28.40;37.06;100921.31;4988732;28;20049;-69
2021/06/28 08:44:57;;;;;;;8.52;2.25;;;;;;;28.41;37.00;100900.03;4986771;28;20517;-73
2021/06/28 08:47:24;;;;;;;7.13;2.40;;;;;;;28.53;37.00;100908.34;4968208;28;20108;-67
2021/06/28 08:49:52;;;;;;;6.18;2.47;;;;;;;28.64;36.58;100913.34;4987788;28;20138;-68
2021/06/28 08:52:24;;;;;;;5.05;2.03;;;;;;;28.47;36.82;100878.31;4979589;28;20046;-74
2021/06/28 08:54:53;;;;;;;13.48;3.10;;;;;;;28.43;36.81;100923.41;5000094;28;20129;-76
2021/06/28 08:57:20;;;;;;;6.60;2.15;;;;;;;28.44;36.73;100919.31;4987105;28;20165;-76
2021/06/28 08:59:48;;;;;;;7.07;2.30;;;;;;;28.40;36.46;100895.47;4985243;28;20137;-76
2021/06/28 09:02:15;;;;;;;6.63;2.35;;;;;;;28.65;36.44;100907.25;4986742;28;20100;-75
2021/06/28 09:05:02;;;;;;;8.32;3.00;;;;;;;28.69;36.26;100904.41;4989482;28;20414;-75
2021/06/28 09:07:29;;;;;;;6.22;2.72;;;;;;;28.38;36.16;100883.53;4992189;28;20514;-75
2021/06/28 09:09:56;;;;;;;7.05;2.20;;;;;;;28.38;36.03;100902.78;4983352;28;20089;-75
2021/06/28 09:12:23;;;;;;;4.25;1.80;;;;;;;28.09;36.43;100920.53;4989847;28;20130;-75
2021/06/28 09:14:59;;;;;;;8.60;2.30;;;;;;;27.49;36.81;100896.72;4974454;28;20081;-75
2021/06/28 09:17:30;;;;;;;8.65;2.63;;;;;;;27.37;37.48;100904.38;4984227;28;20470;-75
2021/06/28 09:20:17;;;;;;;5.43;2.67;;;;;;;27.60;37.41;100909.22;4985104;28;20129;-75
2021/06/28 09:22:46;;;;;;;5.20;2.50;;;;;;;27.96;36.53;100896.16;4983487;28;20262;-75
2021/06/28 09:25:33;;;;;;;5.97;2.58;;;;;;;28.35;36.63;100910.16;4989060;28;20129;-75
2021/06/28 09:28:00;;;;;;;8.27;3.17;;;;;;;28.61;36.00;100905.53;4984695;28;20702;-75
2021/06/28 09:30:27;;;;;;;7.85;2.75;;;;;;;28.85;35.22;100904.94;4984083;28;20082;-74
2021/06/28 09:32:57;;;;;;;7.00;2.63;;;;;;;29.17;34.97;100915.91;4980929;28;20482;-76
2021/06/28 09:35:29;;;;;;;6.50;2.85;;;;;;;29.22;34.90;100924.16;4989013;28;20050;-76
2021/06/28 09:38:00;;;;;;;6.22;2.90;;;;;;;29.17;34.39;100921.66;4988746;28;20507;-75
2021/06/28 09:40:28;;;;;;;4.93;2.30;;;;;;;29.24;34.28;100921.72;4986481;28;20093;-75
2021/06/28 09:42:55;;;;;;;5.53;3.00;;;;;;;29.18;34.16;100920.44;4976888;28;20407;-75
2021/06/28 09:45:24;;;;;;;7.25;2.55;;;;;;;29.33;33.93;100918.47;4990096;28;20086;-75
2021/06/28 09:47:51;;;;;;;8.77;2.67;;;;;;;29.42;33.78;100922.66;4987660;28;20043;-75
2021/06/28 09:50:24;;;;;;;8.13;2.30;;;;;;;29.59;33.94;100920.31;4981363;28;20050;-74
2021/06/28 09:52:53;;;;;;;11.13;3.20;;;;;;;29.28;33.48;100850.66;4992070;28;20106;-74
2021/06/28 09:55:22;;;;;;;;;;;;;;;29.66;35.15;100917.50;4988153;28;20141;-77
2021/06/28 09:58:05;;;;;;;5.63;2.33;;;;;;;29.89;34.26;100917.22;4983567;28;20020;-78
2021/06/28 10:00:34;;;;;;;5.70;2.60;;;;;;;29.89;32.91;100889.22;4988296;28;20145;-75
2021/06/28 10:03:22;;;;;;;8.93;2.35;;;;;;;30.14;33.14;100929.63;4985810;28;20622;-75
2021/06/28 10:06:02;;;;;;;7.35;2.67;;;;;;;29.83;32.92;100919.63;4986581;28;20073;-75
2021/06/28 10:08:37;;;;;;;5.30;2.97;;;;;;;29.36;33.08;100915.63;4988462;28;20046;-76
2021/06/28 10:11:21;;;;;;;6.53;2.58;;;;;;;29.16;33.33;100920.84;4978556;28;20047;-79
2021/06/28 10:14:04;;;;;;;6.88;2.45;;;;;;;28.92;34.06;100915.66;4980931;28;20047;-79
2021/06/28 10:16:35;;;;;;;5.22;2.10;;;;;;;28.62;33.98;100915.81;4983238;28;20046;-76
2021/06/28 10:19:04;;;;;;;6.68;2.72;;;;;;;28.27;34.11;100919.91;4983359;28;20050;-69
2021/06/28 10:21:32;;;;;;;10.68;2.65;;;;;;;27.89;34.61;100910.44;4988261;28;20074;-67
2021/06/28 10:24:00;;;;;;;8.77;2.85;;;;;;;27.65;35.40;100924.03;4986510;28;20049;-75
2021/06/28 10:26:27;;;;;;;7.40;2.58;;;;;;;27.34;35.65;100919.47;4980562;28;20195;-77
2021/06/28 10:28:56;;;;;;;7.57;2.15;;;;;;;27.20;35.62;100924.16;4987494;28;20038;-78
2021/06/28 10:31:25;;;;;;;7.65;2.97;;;;;;;27.26;35.77;100931.22;4988769;28;20486;-78
2021/06/28 10:33:59;;;;;;;8.48;2.28;;;;;;;27.17;35.47;100892.19;4987806;28;20058;-77
2021/06/28 10:36:38;;;;;;;5.88;3.03;;;;;;;27.25;35.82;100909.50;4982170;28;20919;-72
2021/06/28 10:39:10;;;;;;;12.85;3.25;;;;;;;27.76;35.97;100917.63;4986015;28;20117;-73
2021/06/28 10:41:52;;;;;;;5.47;2.53;;;;;;;28.42;34.89;100924.63;4983138;28;20046;-65
2021/06/28 10:44:21;;;;;;;5.82;2.35;;;;;;;28.88;34.26;100920.56;4986879;28;20061;-61
2021/06/28 10:46:56;;;;;;;8.10;2.50;;;;;;;28.90;34.42;100929.63;4987285;28;20077;-61
2021/06/28 10:49:43;;;;;;;6.00;2.45;;;;;;;28.83;34.57;100936.13;4984879;28;20835;-61
2021/06/28 10:52:11;;;;;;;9.15;2.80;;;;;;;28.91;34.00;100937.03;4981674;28;20466;-61
2021/06/28 10:54:38;;;;;;;5.30;2.28;;;;;;;29.02;34.15;100933.03;4985710;28;20054;-61
2021/06/28 10:57:10;;;;;;;9.57;3.03;;;;;;;28.92;33.97;100927.97;5001948;28;20046;-62
2021/06/28 10:59:44;;;;;;;7.50;2.80;;;;;;;28.70;34.26;100909.72;4986693;28;20158;-67
2021/06/28 11:02:13;;;;;;;6.53;3.03;;;;;;;28.63;34.66;100934.72;4989162;28;20066;-68
2021/06/28 11:04:41;;;;;;;;;;;;;;;28.23;35.72;100942.03;4992294;28;20566;-68
2021/06/28 11:07:11;;;;;;;7.72;3.75;;;;;;;28.11;35.47;100941.06;4982447;28;20425;-67
2021/06/28 11:09:58;;;;;;;8.48;3.78;;;;;;;28.30;36.07;100930.63;4989839;28;20062;-66
2021/06/28 11:12:31;;;;;;;11.00;2.97;;;;;;;28.40;35.73;100935.69;4987434;28;20138;-65
2021/06/28 11:15:20;;;;;;;6.07;2.67;;;;;;;28.30;35.78;100930.63;4989752;28;20079;-64
2021/06/28 11:17:53;;;;;;;9.68;3.22;;;;;;;28.38;36.15;100943.84;4993219;28;20050;-65
2021/06/28 11:20:39;;;;;;;6.28;2.72;;;;;;;28.48;36.10;100946.06;4983269;28;20051;-65
2021/06/28 11:23:16;;;;;;;6.82;2.97;;;;;;;28.76;35.72;100953.31;4987415;28;20069;-64
2021/06/28 11:25:55;;;;;;;4.28;2.88;;;;;;;29.08;35.95;100942.13;4993684;28;20070;-65
2021/06/28 11:28:24;;;;;;;8.95;2.90;;;;;;;29.20;35.51;100950.47;4996436;28;20510;-65